sensor_id;sensor_type;location;lat;lon;timestamp;temperature;humidity
56426;DHT22;42330;43.620;3.856;2022-08-01T00:00:13;27.10;55.00
56426;DHT22;42330;43.620;3.856;2022-08-01T00:02:39;27.00;55.30
56426;DHT22;42330;43.620;3.856;2022-08-01T00:05:06;26.90;55.00
56426;DHT22;42330;43.620;3.856;2022-08-01T00:07:34;26.90;55.20
56426;DHT22;42330;43.620;3.856;2022-08-01T00:10:00;26.80;54.90
56426;DHT22;42330;43.620;3.856;2022-08-01T00:12:25;26.80;55.00
56426;DHT22;42330;43.620;3.856;2022-08-01T00:14:51;26.80;55.00
56426;DHT22;42330;43.620;3.856;2022-08-01T00:17:16;26.80;55.20
56426;DHT22;42330;43.620;3.856;2022-08-01T00:19:42;26.80;55.20
56426;DHT22;42330;43.620;3.856;2022-08-01T00:22:08;26.70;55.20
56426;DHT22;42330;43.620;3.856;2022-08-01T00:24:33;26.50;55.20
56426;DHT22;42330;43.620;3.856;2022-08-01T00:26:59;26.60;55.10
56426;DHT22;42330;43.620;3.856;2022-08-01T00:29:25;26.60;55.20
56426;DHT22;42330;43.620;3.856;2022-08-01T00:31:50;26.60;55.60
56426;DHT22;42330;43.620;3.856;2022-08-01T00:34:16;26.60;55.50
56426;DHT22;42330;43.620;3.856;2022-08-01T00:36:42;26.50;55.60
56426;DHT22;42330;43.620;3.856;2022-08-01T00:39:07;26.50;55.50
56426;DHT22;42330;43.620;3.856;2022-08-01T00:41:33;26.50;54.80
56426;DHT22;42330;43.620;3.856;2022-08-01T00:44:03;26.50;55.00
56426;DHT22;42330;43.620;3.856;2022-08-01T00:46:28;26.40;55.40
56426;DHT22;42330;43.620;3.856;2022-08-01T00:48:54;26.40;55.70
56426;DHT22;42330;43.620;3.856;2022-08-01T00:51:20;26.40;55.50
56426;DHT22;42330;43.620;3.856;2022-08-01T00:53:47;26.40;55.50
56426;DHT22;42330;43.620;3.856;2022-08-01T00:56:14;26.50;55.10
56426;DHT22;42330;43.620;3.856;2022-08-01T00:58:39;26.50;53.70
56426;DHT22;42330;43.620;3.856;2022-08-01T01:01:05;26.60;53.30
56426;DHT22;42330;43.620;3.856;2022-08-01T01:03:31;26.60;53.40
56426;DHT22;42330;43.620;3.856;2022-08-01T01:12:00;26.70;52.00
56426;DHT22;42330;43.620;3.856;2022-08-01T01:15:08;26.70;52.00
56426;DHT22;42330;43.620;3.856;2022-08-01T01:17:57;26.70;52.00
56426;DHT22;42330;43.620;3.856;2022-08-01T01:20:33;26.70;51.80
56426;DHT22;42330;43.620;3.856;2022-08-01T01:29:03;26.50;52.30
56426;DHT22;42330;43.620;3.856;2022-08-01T01:31:40;26.50;52.60
56426;DHT22;42330;43.620;3.856;2022-08-01T01:34:08;26.40;52.40
56426;DHT22;42330;43.620;3.856;2022-08-01T01:36:35;26.40;52.60
56426;DHT22;42330;43.620;3.856;2022-08-01T01:39:02;26.30;52.80
56426;DHT22;42330;43.620;3.856;2022-08-01T01:41:29;26.10;53.00
56426;DHT22;42330;43.620;3.856;2022-08-01T01:43:56;26.10;52.90
56426;DHT22;42330;43.620;3.856;2022-08-01T01:46:25;26.10;53.10
56426;DHT22;42330;43.620;3.856;2022-08-01T01:48:54;26.20;52.70
56426;DHT22;42330;43.620;3.856;2022-08-01T01:51:22;26.10;53.10
56426;DHT22;42330;43.620;3.856;2022-08-01T01:53:49;26.10;53.30
56426;DHT22;42330;43.620;3.856;2022-08-01T01:56:17;26.10;53.30
56426;DHT22;42330;43.620;3.856;2022-08-01T01:58:44;26.10;53.20
56426;DHT22;42330;43.620;3.856;2022-08-01T02:01:10;25.90;53.70
56426;DHT22;42330;43.620;3.856;2022-08-01T02:03:38;25.90;53.90
56426;DHT22;42330;43.620;3.856;2022-08-01T02:06:05;25.80;53.70
56426;DHT22;42330;43.620;3.856;2022-08-01T02:08:32;25.70;54.20
56426;DHT22;42330;43.620;3.856;2022-08-01T02:11:00;25.70;54.40
56426;DHT22;42330;43.620;3.856;2022-08-01T02:14:06;25.60;54.10
56426;DHT22;42330;43.620;3.856;2022-08-01T02:16:37;25.60;54.10
56426;DHT22;42330;43.620;3.856;2022-08-01T02:19:05;25.70;54.10
56426;DHT22;42330;43.620;3.856;2022-08-01T02:21:37;25.70;54.20
56426;DHT22;42330;43.620;3.856;2022-08-01T02:24:12;25.80;54.20
56426;DHT22;42330;43.620;3.856;2022-08-01T02:26:42;25.80;54.00
56426;DHT22;42330;43.620;3.856;2022-08-01T02:29:10;25.70;54.10
56426;DHT22;42330;43.620;3.856;2022-08-01T02:31:39;25.50;54.50
56426;DHT22;42330;43.620;3.856;2022-08-01T02:34:09;25.30;55.00
56426;DHT22;42330;43.620;3.856;2022-08-01T02:36:36;25.30;55.30
56426;DHT22;42330;43.620;3.856;2022-08-01T02:39:08;25.10;55.30
56426;DHT22;42330;43.620;3.856;2022-08-01T02:41:39;25.30;55.30
56426;DHT22;42330;43.620;3.856;2022-08-01T02:44:08;25.30;55.10
56426;DHT22;42330;43.620;3.856;2022-08-01T02:46:44;25.30;55.20
56426;DHT22;42330;43.620;3.856;2022-08-01T02:49:13;25.30;55.00
56426;DHT22;42330;43.620;3.856;2022-08-01T02:51:40;25.30;55.20
56426;DHT22;42330;43.620;3.856;2022-08-01T02:54:08;25.30;55.20
56426;DHT22;42330;43.620;3.856;2022-08-01T02:56:35;25.30;55.10
56426;DHT22;42330;43.620;3.856;2022-08-01T02:59:11;25.30;55.50
56426;DHT22;42330;43.620;3.856;2022-08-01T03:01:38;25.30;55.20
56426;DHT22;42330;43.620;3.856;2022-08-01T03:04:04;25.30;55.10
56426;DHT22;42330;43.620;3.856;2022-08-01T03:06:32;25.30;55.00
56426;DHT22;42330;43.620;3.856;2022-08-01T03:09:00;25.30;54.90
56426;DHT22;42330;43.620;3.856;2022-08-01T03:11:27;25.40;55.10
56426;DHT22;42330;43.620;3.856;2022-08-01T03:13:55;25.30;55.10
56426;DHT22;42330;43.620;3.856;2022-08-01T03:16:23;25.20;55.70
56426;DHT22;42330;43.620;3.856;2022-08-01T03:18:50;25.00;56.30
56426;DHT22;42330;43.620;3.856;2022-08-01T03:21:18;24.80;57.20
56426;DHT22;42330;43.620;3.856;2022-08-01T03:23:45;24.80;57.10
56426;DHT22;42330;43.620;3.856;2022-08-01T03:26:13;24.70;57.10
56426;DHT22;42330;43.620;3.856;2022-08-01T03:28:40;24.70;57.20
56426;DHT22;42330;43.620;3.856;2022-08-01T03:31:07;24.70;57.00
56426;DHT22;42330;43.620;3.856;2022-08-01T03:33:32;24.80;56.80
56426;DHT22;42330;43.620;3.856;2022-08-01T03:36:00;25.00;56.60
56426;DHT22;42330;43.620;3.856;2022-08-01T03:38:31;25.00;56.30
56426;DHT22;42330;43.620;3.856;2022-08-01T03:41:02;25.00;55.90
56426;DHT22;42330;43.620;3.856;2022-08-01T03:43:38;25.00;56.00
56426;DHT22;42330;43.620;3.856;2022-08-01T03:46:11;25.00;55.40
56426;DHT22;42330;43.620;3.856;2022-08-01T03:48:44;25.20;54.80
56426;DHT22;42330;43.620;3.856;2022-08-01T03:51:13;25.30;54.30
56426;DHT22;42330;43.620;3.856;2022-08-01T03:53:41;25.30;54.10
56426;DHT22;42330;43.620;3.856;2022-08-01T03:56:08;25.20;54.30
56426;DHT22;42330;43.620;3.856;2022-08-01T03:58:39;25.20;54.80
56426;DHT22;42330;43.620;3.856;2022-08-01T04:01:06;25.10;55.20
56426;DHT22;42330;43.620;3.856;2022-08-01T04:03:32;25.00;55.50
56426;DHT22;42330;43.620;3.856;2022-08-01T04:05:58;25.00;55.20
56426;DHT22;42330;43.620;3.856;2022-08-01T04:08:34;24.90;55.10
56426;DHT22;42330;43.620;3.856;2022-08-01T04:11:00;24.90;54.80
56426;DHT22;42330;43.620;3.856;2022-08-01T04:13:25;25.00;54.50
56426;DHT22;42330;43.620;3.856;2022-08-01T04:15:51;25.10;54.30
56426;DHT22;42330;43.620;3.856;2022-08-01T04:18:17;25.10;53.90
56426;DHT22;42330;43.620;3.856;2022-08-01T04:20:42;25.20;53.90
56426;DHT22;42330;43.620;3.856;2022-08-01T04:23:09;25.20;53.70
56426;DHT22;42330;43.620;3.856;2022-08-01T04:25:37;25.20;53.70
56426;DHT22;42330;43.620;3.856;2022-08-01T04:28:06;25.20;53.80
56426;DHT22;42330;43.620;3.856;2022-08-01T04:30:34;25.20;53.50
56426;DHT22;42330;43.620;3.856;2022-08-01T04:33:03;25.10;53.60
56426;DHT22;42330;43.620;3.856;2022-08-01T04:35:31;25.20;53.70
56426;DHT22;42330;43.620;3.856;2022-08-01T04:37:59;25.20;53.50
56426;DHT22;42330;43.620;3.856;2022-08-01T04:40:27;25.30;53.20
56426;DHT22;42330;43.620;3.856;2022-08-01T04:42:53;25.20;53.30
56426;DHT22;42330;43.620;3.856;2022-08-01T04:45:19;25.10;53.50
56426;DHT22;42330;43.620;3.856;2022-08-01T04:47:46;25.10;53.60
56426;DHT22;42330;43.620;3.856;2022-08-01T04:50:13;25.10;53.70
56426;DHT22;42330;43.620;3.856;2022-08-01T04:52:39;25.00;53.90
56426;DHT22;42330;43.620;3.856;2022-08-01T04:55:08;24.90;54.50
56426;DHT22;42330;43.620;3.856;2022-08-01T04:57:39;24.80;55.00
56426;DHT22;42330;43.620;3.856;2022-08-01T05:00:07;24.80;54.80
56426;DHT22;42330;43.620;3.856;2022-08-01T05:02:33;24.80;55.10
56426;DHT22;42330;43.620;3.856;2022-08-01T05:04:58;24.90;54.80
56426;DHT22;42330;43.620;3.856;2022-08-01T05:07:24;24.90;54.90
56426;DHT22;42330;43.620;3.856;2022-08-01T05:09:50;24.80;54.90
56426;DHT22;42330;43.620;3.856;2022-08-01T05:12:16;24.80;55.00
56426;DHT22;42330;43.620;3.856;2022-08-01T05:14:42;24.80;55.00
56426;DHT22;42330;43.620;3.856;2022-08-01T05:17:09;24.90;54.90
56426;DHT22;42330;43.620;3.856;2022-08-01T05:19:36;25.00;54.70
56426;DHT22;42330;43.620;3.856;2022-08-01T05:22:07;25.10;54.60
56426;DHT22;42330;43.620;3.856;2022-08-01T05:24:37;25.20;54.60
56426;DHT22;42330;43.620;3.856;2022-08-01T05:27:04;25.20;54.30
56426;DHT22;42330;43.620;3.856;2022-08-01T05:29:30;25.30;54.60
56426;DHT22;42330;43.620;3.856;2022-08-01T05:31:56;25.30;54.30
56426;DHT22;42330;43.620;3.856;2022-08-01T05:34:22;25.40;54.60
56426;DHT22;42330;43.620;3.856;2022-08-01T05:36:48;25.40;54.70
56426;DHT22;42330;43.620;3.856;2022-08-01T05:39:14;25.40;54.90
56426;DHT22;42330;43.620;3.856;2022-08-01T05:41:41;25.40;55.00
56426;DHT22;42330;43.620;3.856;2022-08-01T05:44:07;25.50;55.40
56426;DHT22;42330;43.620;3.856;2022-08-01T05:46:33;25.50;55.20
56426;DHT22;42330;43.620;3.856;2022-08-01T05:49:00;25.60;55.30
56426;DHT22;42330;43.620;3.856;2022-08-01T05:51:26;25.60;55.70
56426;DHT22;42330;43.620;3.856;2022-08-01T05:53:52;25.70;55.80
56426;DHT22;42330;43.620;3.856;2022-08-01T05:56:19;25.70;56.20
56426;DHT22;42330;43.620;3.856;2022-08-01T05:58:44;25.80;56.60
56426;DHT22;42330;43.620;3.856;2022-08-01T06:01:10;25.80;56.30
56426;DHT22;42330;43.620;3.856;2022-08-01T06:03:36;25.80;56.00
56426;DHT22;42330;43.620;3.856;2022-08-01T06:06:03;25.90;55.80
56426;DHT22;42330;43.620;3.856;2022-08-01T06:08:29;26.00;56.20
56426;DHT22;42330;43.620;3.856;2022-08-01T06:10:55;26.10;56.70
56426;DHT22;42330;43.620;3.856;2022-08-01T06:13:21;26.10;56.20
56426;DHT22;42330;43.620;3.856;2022-08-01T06:15:47;26.20;56.30
56426;DHT22;42330;43.620;3.856;2022-08-01T06:18:14;26.20;55.90
56426;DHT22;42330;43.620;3.856;2022-08-01T06:20:40;26.30;54.90
56426;DHT22;42330;43.620;3.856;2022-08-01T06:23:06;26.40;54.80
56426;DHT22;42330;43.620;3.856;2022-08-01T06:25:31;26.50;53.80
56426;DHT22;42330;43.620;3.856;2022-08-01T06:27:58;26.60;54.00
56426;DHT22;42330;43.620;3.856;2022-08-01T06:30:24;26.60;53.10
56426;DHT22;42330;43.620;3.856;2022-08-01T06:32:50;26.80;52.90
56426;DHT22;42330;43.620;3.856;2022-08-01T06:35:15;26.90;52.90
56426;DHT22;42330;43.620;3.856;2022-08-01T06:37:41;26.90;52.50
56426;DHT22;42330;43.620;3.856;2022-08-01T06:40:09;27.00;52.30
56426;DHT22;42330;43.620;3.856;2022-08-01T06:42:35;27.10;52.60
56426;DHT22;42330;43.620;3.856;2022-08-01T06:45:08;27.20;52.40
56426;DHT22;42330;43.620;3.856;2022-08-01T06:47:35;27.40;50.70
56426;DHT22;42330;43.620;3.856;2022-08-01T06:50:01;27.50;51.00
56426;DHT22;42330;43.620;3.856;2022-08-01T06:52:27;27.60;51.20
56426;DHT22;42330;43.620;3.856;2022-08-01T06:54:53;27.70;50.20
56426;DHT22;42330;43.620;3.856;2022-08-01T06:57:19;27.80;50.40
56426;DHT22;42330;43.620;3.856;2022-08-01T06:59:44;28.00;48.90
56426;DHT22;42330;43.620;3.856;2022-08-01T07:02:10;28.20;48.40
56426;DHT22;42330;43.620;3.856;2022-08-01T07:04:36;28.30;47.80
56426;DHT22;42330;43.620;3.856;2022-08-01T07:07:02;28.40;47.80
56426;DHT22;42330;43.620;3.856;2022-08-01T07:09:28;28.50;47.80
56426;DHT22;42330;43.620;3.856;2022-08-01T07:11:54;28.70;47.80
56426;DHT22;42330;43.620;3.856;2022-08-01T07:14:21;28.60;47.10
56426;DHT22;42330;43.620;3.856;2022-08-01T07:16:47;28.80;46.80
56426;DHT22;42330;43.620;3.856;2022-08-01T07:19:13;28.80;46.20
56426;DHT22;42330;43.620;3.856;2022-08-01T07:21:39;28.90;46.80
56426;DHT22;42330;43.620;3.856;2022-08-01T07:24:06;29.00;46.30
56426;DHT22;42330;43.620;3.856;2022-08-01T07:26:32;29.10;46.00
56426;DHT22;42330;43.620;3.856;2022-08-01T07:28:57;29.20;45.90
56426;DHT22;42330;43.620;3.856;2022-08-01T07:31:23;29.30;45.20
56426;DHT22;42330;43.620;3.856;2022-08-01T07:33:49;29.40;45.30
56426;DHT22;42330;43.620;3.856;2022-08-01T07:36:16;29.40;45.10
56426;DHT22;42330;43.620;3.856;2022-08-01T07:38:42;29.40;45.20
56426;DHT22;42330;43.620;3.856;2022-08-01T07:41:08;29.50;44.90
56426;DHT22;42330;43.620;3.856;2022-08-01T07:43:34;29.50;45.30
56426;DHT22;42330;43.620;3.856;2022-08-01T07:46:04;29.60;44.90
56426;DHT22;42330;43.620;3.856;2022-08-01T07:48:30;29.70;45.20
56426;DHT22;42330;43.620;3.856;2022-08-01T07:50:56;29.80;44.70
56426;DHT22;42330;43.620;3.856;2022-08-01T07:53:22;29.90;44.90
56426;DHT22;42330;43.620;3.856;2022-08-01T07:55:47;30.00;44.60
56426;DHT22;42330;43.620;3.856;2022-08-01T07:58:14;30.10;43.70
56426;DHT22;42330;43.620;3.856;2022-08-01T08:00:40;30.20;44.00
56426;DHT22;42330;43.620;3.856;2022-08-01T08:03:06;30.40;43.60
56426;DHT22;42330;43.620;3.856;2022-08-01T08:05:32;30.40;43.10
56426;DHT22;42330;43.620;3.856;2022-08-01T08:08:09;30.60;42.30
56426;DHT22;42330;43.620;3.856;2022-08-01T08:10:36;30.60;42.60
56426;DHT22;42330;43.620;3.856;2022-08-01T08:13:02;30.60;42.50
56426;DHT22;42330;43.620;3.856;2022-08-01T08:15:28;30.70;42.20
56426;DHT22;42330;43.620;3.856;2022-08-01T08:17:54;30.90;41.60
56426;DHT22;42330;43.620;3.856;2022-08-01T08:20:20;30.90;42.40
56426;DHT22;42330;43.620;3.856;2022-08-01T08:22:52;31.00;42.80
56426;DHT22;42330;43.620;3.856;2022-08-01T08:25:18;31.10;42.10
56426;DHT22;42330;43.620;3.856;2022-08-01T08:27:47;31.00;42.60
56426;DHT22;42330;43.620;3.856;2022-08-01T08:30:13;31.10;42.80
56426;DHT22;42330;43.620;3.856;2022-08-01T08:32:39;31.10;42.70
56426;DHT22;42330;43.620;3.856;2022-08-01T08:35:06;31.20;42.30
56426;DHT22;42330;43.620;3.856;2022-08-01T08:37:33;31.20;42.30
56426;DHT22;42330;43.620;3.856;2022-08-01T08:39:59;31.20;42.50
56426;DHT22;42330;43.620;3.856;2022-08-01T08:42:25;31.30;42.10
56426;DHT22;42330;43.620;3.856;2022-08-01T08:44:51;31.30;41.80
56426;DHT22;42330;43.620;3.856;2022-08-01T08:47:19;31.30;42.60
56426;DHT22;42330;43.620;3.856;2022-08-01T08:49:47;31.40;41.00
56426;DHT22;42330;43.620;3.856;2022-08-01T08:52:14;31.60;41.20
56426;DHT22;42330;43.620;3.856;2022-08-01T08:54:41;31.70;41.00
56426;DHT22;42330;43.620;3.856;2022-08-01T08:57:07;31.70;40.30
56426;DHT22;42330;43.620;3.856;2022-08-01T08:59:36;31.80;40.10
56426;DHT22;42330;43.620;3.856;2022-08-01T09:02:02;31.80;38.80
56426;DHT22;42330;43.620;3.856;2022-08-01T09:04:30;31.90;38.40
56426;DHT22;42330;43.620;3.856;2022-08-01T09:06:56;32.00;39.00
56426;DHT22;42330;43.620;3.856;2022-08-01T09:09:22;32.10;40.10
56426;DHT22;42330;43.620;3.856;2022-08-01T09:11:49;32.20;39.50
56426;DHT22;42330;43.620;3.856;2022-08-01T09:14:18;32.20;39.30
56426;DHT22;42330;43.620;3.856;2022-08-01T09:17:00;32.30;39.60
56426;DHT22;42330;43.620;3.856;2022-08-01T09:19:37;32.40;38.80
56426;DHT22;42330;43.620;3.856;2022-08-01T09:22:07;32.40;38.90
56426;DHT22;42330;43.620;3.856;2022-08-01T09:24:33;32.50;38.50
56426;DHT22;42330;43.620;3.856;2022-08-01T09:27:00;32.50;39.00
56426;DHT22;42330;43.620;3.856;2022-08-01T09:29:31;32.50;39.50
56426;DHT22;42330;43.620;3.856;2022-08-01T09:31:57;32.70;38.90
56426;DHT22;42330;43.620;3.856;2022-08-01T09:34:30;32.70;38.70
56426;DHT22;42330;43.620;3.856;2022-08-01T09:37:00;32.80;38.40
56426;DHT22;42330;43.620;3.856;2022-08-01T09:39:29;32.70;37.50
56426;DHT22;42330;43.620;3.856;2022-08-01T09:41:58;32.70;37.90
56426;DHT22;42330;43.620;3.856;2022-08-01T09:44:42;32.90;38.30
56426;DHT22;42330;43.620;3.856;2022-08-01T09:47:08;33.00;37.30
56426;DHT22;42330;43.620;3.856;2022-08-01T09:49:37;33.10;38.20
56426;DHT22;42330;43.620;3.856;2022-08-01T09:52:18;33.30;37.50
56426;DHT22;42330;43.620;3.856;2022-08-01T09:54:58;33.40;36.90
56426;DHT22;42330;43.620;3.856;2022-08-01T09:57:25;33.50;37.90
56426;DHT22;42330;43.620;3.856;2022-08-01T09:59:54;33.60;36.60
56426;DHT22;42330;43.620;3.856;2022-08-01T10:02:31;33.80;36.90
56426;DHT22;42330;43.620;3.856;2022-08-01T10:04:57;33.80;37.20
56426;DHT22;42330;43.620;3.856;2022-08-01T10:07:23;33.90;36.30
56426;DHT22;42330;43.620;3.856;2022-08-01T10:09:49;34.00;36.10
56426;DHT22;42330;43.620;3.856;2022-08-01T10:12:18;34.00;36.20
56426;DHT22;42330;43.620;3.856;2022-08-01T10:14:47;34.10;36.10
56426;DHT22;42330;43.620;3.856;2022-08-01T10:17:15;34.20;36.00
56426;DHT22;42330;43.620;3.856;2022-08-01T10:19:42;34.40;35.80
56426;DHT22;42330;43.620;3.856;2022-08-01T10:22:10;34.40;35.80
56426;DHT22;42330;43.620;3.856;2022-08-01T10:24:39;34.50;35.90
56426;DHT22;42330;43.620;3.856;2022-08-01T10:27:10;34.70;35.70
56426;DHT22;42330;43.620;3.856;2022-08-01T10:29:41;35.10;34.80
56426;DHT22;42330;43.620;3.856;2022-08-01T10:32:09;35.30;35.80
56426;DHT22;42330;43.620;3.856;2022-08-01T10:34:36;35.40;34.80
56426;DHT22;42330;43.620;3.856;2022-08-01T10:37:03;35.50;34.50
56426;DHT22;42330;43.620;3.856;2022-08-01T10:39:30;35.50;34.90
56426;DHT22;42330;43.620;3.856;2022-08-01T10:41:56;35.70;34.70
56426;DHT22;42330;43.620;3.856;2022-08-01T10:44:24;35.90;34.40
56426;DHT22;42330;43.620;3.856;2022-08-01T10:46:54;36.30;34.30
56426;DHT22;42330;43.620;3.856;2022-08-01T10:49:24;36.10;34.00
56426;DHT22;42330;43.620;3.856;2022-08-01T10:51:52;36.30;34.20
56426;DHT22;42330;43.620;3.856;2022-08-01T10:54:17;36.50;34.40
56426;DHT22;42330;43.620;3.856;2022-08-01T10:56:49;36.60;34.00
56426;DHT22;42330;43.620;3.856;2022-08-01T10:59:26;36.70;34.10
56426;DHT22;42330;43.620;3.856;2022-08-01T11:02:08;37.30;33.90
56426;DHT22;42330;43.620;3.856;2022-08-01T11:07:17;37.30;33.30
56426;DHT22;42330;43.620;3.856;2022-08-01T11:09:46;37.30;32.20
56426;DHT22;42330;43.620;3.856;2022-08-01T11:12:16;37.40;33.10
56426;DHT22;42330;43.620;3.856;2022-08-01T11:17:43;37.80;33.20
56426;DHT22;42330;43.620;3.856;2022-08-01T11:20:23;37.70;31.20
56426;DHT22;42330;43.620;3.856;2022-08-01T11:25:27;38.00;31.40
56426;DHT22;42330;43.620;3.856;2022-08-01T11:30:48;38.10;30.70
56426;DHT22;42330;43.620;3.856;2022-08-01T11:33:16;38.30;31.20
56426;DHT22;42330;43.620;3.856;2022-08-01T11:38:46;38.40;35.00
56426;DHT22;42330;43.620;3.856;2022-08-01T11:41:20;38.20;35.30
56426;DHT22;42330;43.620;3.856;2022-08-01T11:44:00;38.00;35.00
56426;DHT22;42330;43.620;3.856;2022-08-01T11:46:58;38.20;35.20
56426;DHT22;42330;43.620;3.856;2022-08-01T11:52:22;38.20;34.90
56426;DHT22;42330;43.620;3.856;2022-08-01T11:54:50;38.20;35.00
56426;DHT22;42330;43.620;3.856;2022-08-01T11:57:21;38.00;34.10
56426;DHT22;42330;43.620;3.856;2022-08-01T11:59:53;38.10;34.20
56426;DHT22;42330;43.620;3.856;2022-08-01T12:02:24;38.10;33.70
56426;DHT22;42330;43.620;3.856;2022-08-01T12:05:00;38.00;35.20
56426;DHT22;42330;43.620;3.856;2022-08-01T12:07:29;38.20;35.00
56426;DHT22;42330;43.620;3.856;2022-08-01T12:12:31;38.10;35.30
56426;DHT22;42330;43.620;3.856;2022-08-01T12:15:06;37.90;35.40
56426;DHT22;42330;43.620;3.856;2022-08-01T12:20:04;38.20;35.50
56426;DHT22;42330;43.620;3.856;2022-08-01T12:22:30;38.20;35.40
56426;DHT22;42330;43.620;3.856;2022-08-01T12:25:08;38.10;34.70
56426;DHT22;42330;43.620;3.856;2022-08-01T12:27:35;37.70;34.20
56426;DHT22;42330;43.620;3.856;2022-08-01T12:30:01;37.70;35.10
56426;DHT22;42330;43.620;3.856;2022-08-01T12:32:31;37.90;35.50
56426;DHT22;42330;43.620;3.856;2022-08-01T12:35:05;37.90;35.60
56426;DHT22;42330;43.620;3.856;2022-08-01T12:37:36;37.90;35.20
56426;DHT22;42330;43.620;3.856;2022-08-01T12:40:11;37.80;34.90
56426;DHT22;42330;43.620;3.856;2022-08-01T12:42:39;37.70;35.80
56426;DHT22;42330;43.620;3.856;2022-08-01T12:45:08;37.90;35.50
56426;DHT22;42330;43.620;3.856;2022-08-01T12:47:38;38.00;35.10
56426;DHT22;42330;43.620;3.856;2022-08-01T12:50:07;38.00;34.70
56426;DHT22;42330;43.620;3.856;2022-08-01T12:52:33;38.00;34.80
56426;DHT22;42330;43.620;3.856;2022-08-01T12:55:11;38.10;35.00
56426;DHT22;42330;43.620;3.856;2022-08-01T12:57:39;38.10;34.50
56426;DHT22;42330;43.620;3.856;2022-08-01T13:02:39;38.10;34.50
56426;DHT22;42330;43.620;3.856;2022-08-01T13:05:06;38.00;34.90
56426;DHT22;42330;43.620;3.856;2022-08-01T13:07:47;37.90;34.90
56426;DHT22;42330;43.620;3.856;2022-08-01T13:10:14;37.90;34.80
56426;DHT22;42330;43.620;3.856;2022-08-01T13:12:41;38.10;35.20
56426;DHT22;42330;43.620;3.856;2022-08-01T13:15:22;38.30;35.20
56426;DHT22;42330;43.620;3.856;2022-08-01T13:17:49;38.30;34.80
56426;DHT22;42330;43.620;3.856;2022-08-01T13:20:28;38.20;35.00
56426;DHT22;42330;43.620;3.856;2022-08-01T13:22:54;38.30;35.40
56426;DHT22;42330;43.620;3.856;2022-08-01T13:25:21;38.30;35.40
56426;DHT22;42330;43.620;3.856;2022-08-01T13:27:47;38.10;35.20
56426;DHT22;42330;43.620;3.856;2022-08-01T13:30:18;38.00;35.60
56426;DHT22;42330;43.620;3.856;2022-08-01T13:33:05;38.20;35.90
56426;DHT22;42330;43.620;3.856;2022-08-01T13:35:30;38.10;35.70
56426;DHT22;42330;43.620;3.856;2022-08-01T13:37:56;38.20;35.50
56426;DHT22;42330;43.620;3.856;2022-08-01T13:40:26;38.20;35.60
56426;DHT22;42330;43.620;3.856;2022-08-01T13:42:54;38.10;35.30
56426;DHT22;42330;43.620;3.856;2022-08-01T13:45:22;38.20;36.00
56426;DHT22;42330;43.620;3.856;2022-08-01T13:47:47;38.30;35.10
56426;DHT22;42330;43.620;3.856;2022-08-01T13:50:13;38.40;35.30
56426;DHT22;42330;43.620;3.856;2022-08-01T13:52:38;38.60;34.10
56426;DHT22;42330;43.620;3.856;2022-08-01T13:55:04;38.50;34.00
56426;DHT22;42330;43.620;3.856;2022-08-01T13:57:30;38.50;34.80
56426;DHT22;42330;43.620;3.856;2022-08-01T13:59:56;38.50;35.30
56426;DHT22;42330;43.620;3.856;2022-08-01T14:02:26;38.40;35.70
56426;DHT22;42330;43.620;3.856;2022-08-01T14:04:53;38.40;36.20
56426;DHT22;42330;43.620;3.856;2022-08-01T14:07:20;38.20;35.90
56426;DHT22;42330;43.620;3.856;2022-08-01T14:09:45;38.10;36.00
56426;DHT22;42330;43.620;3.856;2022-08-01T14:12:11;38.10;36.70
56426;DHT22;42330;43.620;3.856;2022-08-01T14:14:37;38.10;36.50
56426;DHT22;42330;43.620;3.856;2022-08-01T14:17:03;38.00;35.90
56426;DHT22;42330;43.620;3.856;2022-08-01T14:19:30;38.00;35.90
56426;DHT22;42330;43.620;3.856;2022-08-01T14:21:56;38.00;35.60
56426;DHT22;42330;43.620;3.856;2022-08-01T14:24:22;37.90;34.90
56426;DHT22;42330;43.620;3.856;2022-08-01T14:26:48;37.80;35.30
56426;DHT22;42330;43.620;3.856;2022-08-01T14:29:14;37.60;35.50
56426;DHT22;42330;43.620;3.856;2022-08-01T14:31:40;37.50;36.80
56426;DHT22;42330;43.620;3.856;2022-08-01T14:34:06;37.70;36.50
56426;DHT22;42330;43.620;3.856;2022-08-01T14:36:32;37.70;36.00
56426;DHT22;42330;43.620;3.856;2022-08-01T14:38:58;37.60;36.70
56426;DHT22;42330;43.620;3.856;2022-08-01T14:41:24;37.50;36.30
56426;DHT22;42330;43.620;3.856;2022-08-01T14:43:49;37.50;36.00
56426;DHT22;42330;43.620;3.856;2022-08-01T14:46:15;37.50;36.80
56426;DHT22;42330;43.620;3.856;2022-08-01T14:48:41;37.60;36.90
56426;DHT22;42330;43.620;3.856;2022-08-01T14:51:07;37.60;36.80
56426;DHT22;42330;43.620;3.856;2022-08-01T14:53:33;37.60;36.40
56426;DHT22;42330;43.620;3.856;2022-08-01T14:56:00;37.50;36.80
56426;DHT22;42330;43.620;3.856;2022-08-01T14:58:26;37.50;36.60
56426;DHT22;42330;43.620;3.856;2022-08-01T15:00:52;37.50;36.50
56426;DHT22;42330;43.620;3.856;2022-08-01T15:03:21;37.50;35.70
56426;DHT22;42330;43.620;3.856;2022-08-01T15:05:47;37.50;36.00
56426;DHT22;42330;43.620;3.856;2022-08-01T15:08:13;37.50;35.90
56426;DHT22;42330;43.620;3.856;2022-08-01T15:10:39;37.50;36.50
56426;DHT22;42330;43.620;3.856;2022-08-01T15:13:05;37.50;36.20
56426;DHT22;42330;43.620;3.856;2022-08-01T15:15:31;37.40;36.10
56426;DHT22;42330;43.620;3.856;2022-08-01T15:17:57;37.30;36.30
56426;DHT22;42330;43.620;3.856;2022-08-01T15:20:23;37.40;36.50
56426;DHT22;42330;43.620;3.856;2022-08-01T15:22:49;37.40;36.10
56426;DHT22;42330;43.620;3.856;2022-08-01T15:25:14;37.30;36.70
56426;DHT22;42330;43.620;3.856;2022-08-01T15:27:40;37.30;36.50
56426;DHT22;42330;43.620;3.856;2022-08-01T15:30:06;37.20;36.40
56426;DHT22;42330;43.620;3.856;2022-08-01T15:32:33;37.00;36.50
56426;DHT22;42330;43.620;3.856;2022-08-01T15:34:58;36.90;37.30
56426;DHT22;42330;43.620;3.856;2022-08-01T15:37:24;37.00;37.40
56426;DHT22;42330;43.620;3.856;2022-08-01T15:39:50;37.00;37.40
56426;DHT22;42330;43.620;3.856;2022-08-01T15:42:17;36.90;37.90
56426;DHT22;42330;43.620;3.856;2022-08-01T15:44:43;36.90;37.80
56426;DHT22;42330;43.620;3.856;2022-08-01T15:47:09;36.80;37.30
56426;DHT22;42330;43.620;3.856;2022-08-01T15:49:36;36.70;38.10
56426;DHT22;42330;43.620;3.856;2022-08-01T15:52:07;36.80;37.40
56426;DHT22;42330;43.620;3.856;2022-08-01T15:54:33;36.70;38.00
56426;DHT22;42330;43.620;3.856;2022-08-01T15:56:59;36.70;38.40
56426;DHT22;42330;43.620;3.856;2022-08-01T15:59:26;36.70;38.50
56426;DHT22;42330;43.620;3.856;2022-08-01T16:01:51;36.50;38.70
56426;DHT22;42330;43.620;3.856;2022-08-01T16:04:17;36.40;38.80
56426;DHT22;42330;43.620;3.856;2022-08-01T16:06:43;36.40;38.30
56426;DHT22;42330;43.620;3.856;2022-08-01T16:09:09;36.40;38.10
56426;DHT22;42330;43.620;3.856;2022-08-01T16:11:35;36.40;38.50